Time;durP1;ratioP1;P1;durP2;ratioP2;P2;SDS_P1;SDS_P2;PMS_P1;PMS_P2;Temp;Humidity;BMP_temperature;BMP_pressure;BME280_temperature;BME280_humidity;BME280_pressure;Samples;Min_cycle;Max_cycle;Signal;HPM_P1;HPM_P2
2021/05/16 00:01:23;;;;;;;12.05;5.85;;;;;;;-142.75;66.32;76341.97;5084699;28;20031;-77
2021/05/16 00:03:49;;;;;;;15.45;5.30;;;;;;;-142.75;65.77;76334.09;5092336;28;20085;-79
2021/05/16 00:06:14;;;;;;;15.95;5.28;;;;;;;-142.75;65.80;76334.09;5075901;28;20039;-79
2021/05/16 00:08:40;;;;;;;16.33;6.00;;;;;;;-142.75;66.08;76326.22;5081154;28;20030;-77
2021/05/16 00:11:07;;;;;;;13.93;5.72;;;;;;;-142.75;66.36;76330.16;5098578;28;20106;-78
2021/05/16 00:13:32;;;;;;;;;;;;;;;-142.75;66.56;76343.94;5095798;28;20039;-79
2021/05/16 00:15:57;;;;;;;16.77;5.65;;;;;;;-142.75;66.47;76343.94;5072647;28;19920;-80
2021/05/16 00:18:22;;;;;;;18.58;6.22;;;;;;;-142.75;66.64;76347.84;5076891;28;20039;-78
2021/05/16 00:20:48;;;;;;;23.70;5.72;;;;;;;-142.75;66.67;76343.94;5073606;28;20035;-79
2021/05/16 00:23:14;;;;;;;21.65;5.40;;;;;;;-142.75;67.35;76345.91;5103486;28;20045;-78
2021/05/16 00:25:39;;;;;;;23.90;5.80;;;;;;;-142.75;67.51;76338.03;5084331;28;20027;-78
2021/05/16 00:28:05;;;;;;;25.42;4.78;;;;;;;-142.75;67.59;76345.91;5083824;28;20031;-78
2021/05/16 00:30:31;;;;;;;;;;;;;;;-142.75;67.93;76347.84;5097955;28;20488;-80
2021/05/16 00:32:58;;;;;;;28.75;5.05;;;;;;;-142.75;67.93;76349.81;5096180;28;19998;-78
2021/05/16 00:35:27;;;;;;;31.23;6.05;;;;;;;-142.75;67.73;76345.91;5087883;28;20047;-77
2021/05/16 00:37:53;;;;;;;23.50;5.30;;;;;;;-142.75;67.51;76341.97;5102115;28;20066;-79
2021/05/16 00:40:19;;;;;;;27.02;4.68;;;;;;;-142.75;68.07;76361.63;5097028;28;20048;-78
2021/05/16 00:42:46;;;;;;;38.00;6.10;;;;;;;-142.75;67.82;76369.50;5105664;28;20054;-78
2021/05/16 00:45:22;;;;;;;33.53;6.40;;;;;;;-142.75;68.02;76371.47;5102008;28;20459;-79
2021/05/16 00:47:53;;;;;;;41.78;6.10;;;;;;;-142.75;68.02;76369.50;5084982;28;20039;-78
2021/05/16 00:50:21;;;;;;;33.05;5.75;;;;;;;-142.75;68.20;76365.56;5081260;28;20039;-80
2021/05/16 00:52:46;;;;;;;29.25;4.88;;;;;;;-142.75;67.99;76369.50;5078101;28;20031;-80
2021/05/16 00:55:13;;;;;;;32.60;6.03;;;;;;;-142.75;67.92;76375.41;5103302;28;20024;-80
2021/05/16 00:57:40;;;;;;;28.55;4.72;;;;;;;-142.75;67.54;76371.47;5085000;28;20035;-79
2021/05/16 01:00:08;;;;;;;36.42;5.47;;;;;;;-142.75;67.55;76365.56;5103766;28;20123;-78
2021/05/16 01:02:34;;;;;;;42.42;5.53;;;;;;;-142.75;67.68;76361.63;5087946;28;20400;-79
2021/05/16 01:05:00;;;;;;;29.15;5.32;;;;;;;-142.75;67.81;76365.56;5098473;28;20032;-79
2021/05/16 01:07:25;;;;;;;33.83;5.10;;;;;;;-142.75;67.96;76365.56;5087778;28;20024;-81
2021/05/16 01:09:51;;;;;;;32.10;7.15;;;;;;;-142.75;68.30;76357.69;5103700;28;20031;-79
2021/05/16 01:12:17;;;;;;;33.90;9.32;;;;;;;-142.75;68.01;76353.78;5075639;28;20067;-79
2021/05/16 01:14:44;;;;;;;;;;;;;;;-142.75;68.38;76349.81;5101878;28;20023;-78
2021/05/16 01:17:11;;;;;;;37.38;13.40;;;;;;;-142.75;68.54;76361.63;5093316;28;19934;-78
2021/05/16 01:19:36;;;;;;;;;;;;;;;-142.75;68.51;76363.59;5096755;28;20028;-79
2021/05/16 01:22:04;;;;;;;45.15;15.23;;;;;;;-142.75;68.65;76375.41;5098798;28;20402;-79
2021/05/16 01:24:30;;;;;;;56.80;16.17;;;;;;;-142.75;68.85;76379.34;5100516;28;20031;-78
2021/05/16 01:26:57;;;;;;;49.20;14.88;;;;;;;-142.75;68.71;76379.34;5111441;28;20396;-79
2021/05/16 01:29:22;;;;;;;54.65;16.05;;;;;;;-142.75;68.73;76383.28;5112333;28;20035;-80
2021/05/16 01:31:48;;;;;;;41.60;14.95;;;;;;;-142.75;68.94;76393.13;5099978;28;20043;-76
2021/05/16 01:34:14;;;;;;;56.95;15.90;;;;;;;-142.75;68.79;76379.34;5085953;28;20047;-79
2021/05/16 01:36:39;;;;;;;56.95;14.82;;;;;;;-142.75;68.96;76377.38;5111427;28;20096;-80
2021/05/16 01:39:11;;;;;;;50.38;15.32;;;;;;;-142.75;68.73;76385.25;5111497;28;20026;-79
2021/05/16 01:41:37;;;;;;;45.67;15.55;;;;;;;-142.75;68.83;76385.25;5107846;28;20042;-79
2021/05/16 01:44:03;;;;;;;61.03;18.10;;;;;;;-142.75;68.60;76381.31;5095248;28;20063;-79
2021/05/16 01:46:29;;;;;;;42.00;15.00;;;;;;;-142.75;68.78;76373.44;5074258;28;20028;-77
2021/05/16 01:48:55;;;;;;;54.65;15.80;;;;;;;-142.75;68.71;76377.38;5096588;28;20111;-77
2021/05/16 01:51:20;;;;;;;48.88;14.80;;;;;;;-142.75;68.66;76369.50;5101538;28;20046;-79
2021/05/16 01:53:48;;;;;;;53.85;15.32;;;;;;;-142.75;68.58;76363.59;5100928;28;20023;-77
2021/05/16 01:56:22;;;;;;;45.13;14.02;;;;;;;-142.75;68.52;76377.38;5104959;28;20016;-79
2021/05/16 01:58:51;;;;;;;48.23;15.07;;;;;;;-142.75;68.68;76387.22;5099081;28;20122;-79
2021/05/16 02:01:16;;;;;;;44.38;14.15;;;;;;;-142.75;68.54;76385.25;5095311;28;20158;-78
2021/05/16 02:03:43;;;;;;;48.00;14.52;;;;;;;-142.75;68.49;76379.34;5102145;28;20043;-79
2021/05/16 02:06:09;;;;;;;42.58;15.27;;;;;;;-142.75;68.46;76377.38;5106439;28;20099;-79
2021/05/16 02:08:35;;;;;;;;;;;;;;;-142.75;68.39;76385.25;5084714;28;20030;-78
2021/05/16 02:11:03;;;;;;;43.47;15.65;;;;;;;-142.75;68.43;76381.31;5101375;28;19913;-79
2021/05/16 02:13:29;;;;;;;44.58;16.60;;;;;;;-142.75;68.41;76375.41;5092984;28;20384;-77
2021/05/16 02:15:54;;;;;;;47.13;16.58;;;;;;;-142.75;68.30;76373.44;5104908;28;20027;-79
2021/05/16 02:18:19;;;;;;;36.53;15.13;;;;;;;-142.75;68.02;76381.31;5082741;28;20031;-78
2021/05/16 02:20:45;;;;;;;46.97;15.23;;;;;;;-142.75;67.81;76379.34;5082437;28;20028;-78
2021/05/16 02:23:10;;;;;;;48.28;14.52;;;;;;;-142.75;68.07;76389.19;5110641;28;20634;-78
2021/05/16 02:25:36;;;;;;;41.38;15.20;;;;;;;-142.75;68.18;76389.19;5092794;28;20052;-78
2021/05/16 02:28:02;;;;;;;46.88;14.52;;;;;;;-142.75;68.02;76397.06;5101779;28;20365;-78
2021/05/16 02:30:27;;;;;;;40.33;15.50;;;;;;;-142.75;67.93;76401.00;5100100;28;20031;-79
2021/05/16 02:32:53;;;;;;;37.53;14.73;;;;;;;-142.75;67.69;76402.97;5079397;28;20031;-80
2021/05/16 02:35:18;;;;;;;44.20;13.80;;;;;;;-142.75;67.69;76401.00;5081425;28;20020;-80
2021/05/16 02:37:43;;;;;;;43.90;15.18;;;;;;;-142.75;67.93;76401.00;5090925;28;20552;-79
2021/05/16 02:40:10;;;;;;;43.47;15.23;;;;;;;-142.75;68.09;76401.00;5099209;28;20107;-76
2021/05/16 02:42:35;;;;;;;;;;;;;;;-142.75;68.11;76397.06;5099289;28;20032;-79
2021/05/16 02:45:00;;;;;;;40.67;14.67;;;;;;;-142.75;68.18;76414.78;5097217;28;20467;-79
2021/05/16 02:47:26;;;;;;;40.90;13.15;;;;;;;-142.75;68.23;76418.72;5088015;28;20036;-79
2021/05/16 02:49:51;;;;;;;35.42;13.23;;;;;;;-142.75;68.12;76416.75;5096245;28;20020;-79
2021/05/16 02:52:16;;;;;;;45.60;12.05;;;;;;;-142.75;67.66;76412.81;5083699;28;20088;-77
2021/05/16 02:54:43;;;;;;;43.30;12.90;;;;;;;-142.75;67.84;76414.78;5101542;28;20020;-78
2021/05/16 02:57:09;;;;;;;37.85;13.35;;;;;;;-142.75;68.24;76418.72;5104014;28;20027;-79
2021/05/16 02:59:35;;;;;;;;;;;;;;;-142.75;68.15;76420.69;5081429;28;20085;-79
2021/05/16 03:02:01;;;;;;;33.15;11.10;;;;;;;-142.75;67.93;76428.56;5081763;28;19912;-78
2021/05/16 03:04:26;;;;;;;;;;;;;;;-142.75;68.30;76426.59;5102215;28;20084;-78
2021/05/16 03:06:51;;;;;;;34.43;10.97;;;;;;;-142.75;67.97;76428.56;5100577;28;20408;-79
2021/05/16 03:09:16;;;;;;;28.02;11.23;;;;;;;-142.75;68.18;76426.59;5102913;28;20023;-80
2021/05/16 03:11:42;;;;;;;30.23;11.50;;;;;;;-142.75;68.57;76434.47;5106264;28;20046;-79
2021/05/16 03:14:08;;;;;;;37.27;10.60;;;;;;;-142.75;68.58;76448.25;5110935;28;20023;-78
2021/05/16 03:16:34;;;;;;;30.83;9.93;;;;;;;-142.75;68.85;76446.28;5079905;28;20274;-80
2021/05/16 03:19:00;;;;;;;28.05;9.57;;;;;;;-142.75;68.81;76440.38;5111710;28;20392;-81
2021/05/16 03:21:25;;;;;;;32.10;9.65;;;;;;;-142.75;68.58;76452.19;5077806;28;20627;-79
2021/05/16 03:23:50;;;;;;;35.40;9.98;;;;;;;-142.75;68.80;76448.25;5106752;28;20032;-78
2021/05/16 03:26:16;;;;;;;27.30;9.57;;;;;;;-142.75;69.24;76444.31;5101391;28;20031;-78
2021/05/16 03:28:41;;;;;;;31.25;10.13;;;;;;;-142.75;69.23;76444.31;5097885;28;20156;-79
2021/05/16 03:31:06;;;;;;;29.88;10.13;;;;;;;-142.75;69.18;76440.38;5097004;28;20021;-79
2021/05/16 03:33:32;;;;;;;28.50;9.77;;;;;;;-142.75;69.14;76436.44;5103006;28;20015;-80
2021/05/16 03:35:57;;;;;;;31.05;10.55;;;;;;;-142.75;69.04;76436.44;5083630;28;20397;-80
2021/05/16 03:38:22;;;;;;;32.13;9.60;;;;;;;-142.75;69.30;76438.41;5102975;28;20516;-79
2021/05/16 03:40:48;;;;;;;38.75;10.43;;;;;;;-142.75;69.43;76432.50;5103877;28;20028;-78
2021/05/16 03:43:14;;;;;;;;;;;;;;;-142.75;69.30;76428.56;5099778;28;20084;-81
2021/05/16 03:45:39;;;;;;;36.67;10.70;;;;;;;-142.75;69.57;76424.63;5099163;28;20384;-80
2021/05/16 03:48:05;;;;;;;36.33;12.40;;;;;;;-142.75;69.59;76430.53;5115185;28;20027;-80
2021/05/16 03:50:31;;;;;;;;;;;;;;;-142.75;69.72;76424.63;5109501;28;20031;-79
2021/05/16 03:52:57;;;;;;;32.30;12.20;;;;;;;-142.75;69.81;76440.38;5100922;28;20296;-80
2021/05/16 03:55:22;;;;;;;30.70;12.38;;;;;;;-142.75;69.94;76436.44;5086509;28;20393;-78
2021/05/16 03:57:51;;;;;;;33.38;10.30;;;;;;;-142.75;69.94;76444.31;5087004;28;20085;-79
2021/05/16 04:00:18;;;;;;;33.27;10.57;;;;;;;-142.75;70.03;76444.31;5079974;28;20678;-78
2021/05/16 04:02:44;;;;;;;33.67;10.50;;;;;;;-142.75;70.03;76460.06;5103634;28;20594;-78
2021/05/16 04:05:10;;;;;;;;;;;;;;;-142.75;70.04;76460.06;5101742;28;20030;-78
2021/05/16 04:07:35;;;;;;;30.95;10.30;;;;;;;-142.75;70.16;76456.13;5095285;28;20010;-79
2021/05/16 04:10:00;;;;;;;31.38;10.85;;;;;;;-142.75;70.28;76456.13;5098896;28;20024;-78
2021/05/16 04:12:26;;;;;;;29.85;10.77;;;;;;;-142.75;70.24;76452.19;5105484;28;20043;-78
2021/05/16 04:14:52;;;;;;;30.42;10.93;;;;;;;-142.75;70.18;76450.22;5087518;28;20027;-79
2021/05/16 04:17:19;;;;;;;34.80;10.43;;;;;;;-142.75;70.09;76448.25;5111890;28;20027;-79
2021/05/16 04:19:44;;;;;;;32.73;11.67;;;;;;;-142.75;69.81;76454.16;5112699;28;20020;-79
2021/05/16 04:22:09;;;;;;;33.80;11.00;;;;;;;-142.75;69.77;76462.03;5095579;28;20020;-79
2021/05/16 04:24:35;;;;;;;36.38;10.75;;;;;;;-142.75;69.78;76458.09;5116795;28;20019;-79
2021/05/16 04:27:00;;;;;;;39.40;10.63;;;;;;;-142.75;70.12;76462.03;5100423;28;20034;-78
2021/05/16 04:29:25;;;;;;;36.97;11.15;;;;;;;-142.75;69.84;76469.91;5090541;28;20028;-78
2021/05/16 04:31:51;;;;;;;44.78;10.48;;;;;;;-142.75;69.90;76464.00;5109783;28;20024;-78
2021/05/16 04:34:16;;;;;;;41.20;11.18;;;;;;;-142.75;69.78;76460.06;5100138;28;20107;-78
2021/05/16 04:36:41;;;;;;;46.78;10.52;;;;;;;-142.75;69.58;76454.16;5109144;28;20443;-79
2021/05/16 04:39:07;;;;;;;33.80;11.15;;;;;;;-142.75;69.81;76458.09;5104198;28;20047;-78
2021/05/16 04:41:35;;;;;;;42.03;10.60;;;;;;;-142.75;69.87;76467.94;5102564;28;20028;-78
2021/05/16 04:44:01;;;;;;;41.77;11.20;;;;;;;-142.75;70.12;76465.97;5106963;28;20015;-79
2021/05/16 04:46:27;;;;;;;42.60;10.00;;;;;;;-142.75;70.05;76464.00;5116115;28;20023;-80
2021/05/16 04:48:53;;;;;;;46.15;10.45;;;;;;;-142.75;70.00;76467.94;5115917;28;20084;-79
2021/05/16 04:51:18;;;;;;;40.35;11.27;;;;;;;-142.75;69.84;76465.97;5102326;28;20114;-79
2021/05/16 04:53:43;;;;;;;51.72;11.60;;;;;;;-142.75;69.72;76467.94;5093539;28;20062;-77
2021/05/16 04:56:09;;;;;;;36.67;11.40;;;;;;;-142.75;69.91;76458.09;5113108;28;20027;-79
2021/05/16 04:58:34;;;;;;;55.00;12.98;;;;;;;-142.75;69.94;76448.25;5113244;28;20030;-78
2021/05/16 05:01:00;;;;;;;44.80;12.20;;;;;;;-142.75;70.12;76444.31;5112571;28;20103;-77
2021/05/16 05:03:26;;;;;;;48.67;12.17;;;;;;;-142.75;70.00;76458.09;5093347;28;20023;-80
2021/05/16 05:05:53;;;;;;;54.05;12.68;;;;;;;-142.75;70.15;76450.22;5113005;28;20084;-79
2021/05/16 05:08:19;;;;;;;43.30;12.20;;;;;;;-142.75;69.95;76440.38;5112793;28;20058;-79
2021/05/16 05:10:44;;;;;;;53.58;12.00;;;;;;;-142.75;69.47;76454.16;5080820;28;20020;-79
2021/05/16 05:13:09;;;;;;;38.35;11.20;;;;;;;-142.75;69.76;76440.38;5100105;28;20408;-79
2021/05/16 05:15:35;;;;;;;49.03;11.75;;;;;;;-142.75;69.68;76430.53;5114225;28;20056;-79
2021/05/16 05:18:00;;;;;;;52.90;11.70;;;;;;;-142.75;69.75;76428.56;5109178;28;20016;-79
2021/05/16 05:20:25;;;;;;;35.42;12.65;;;;;;;-142.75;69.32;76426.59;5102059;28;20526;-81
2021/05/16 05:22:54;;;;;;;49.92;11.32;;;;;;;-142.75;69.08;76418.72;5110705;28;20084;-80
2021/05/16 05:25:19;;;;;;;47.72;12.95;;;;;;;-142.75;69.06;76420.69;5109175;28;20027;-83
2021/05/16 05:27:44;;;;;;;49.33;12.35;;;;;;;-142.75;68.96;76416.75;5102340;28;20028;-77
2021/05/16 05:30:11;;;;;;;48.08;12.50;;;;;;;-142.75;69.06;76414.78;5105900;28;20020;-76
2021/05/16 05:32:36;;;;;;;44.08;11.73;;;;;;;-142.75;68.37;76401.00;5079397;28;20446;-79
2021/05/16 05:35:03;;;;;;;40.25;11.95;;;;;;;-142.75;68.69;76381.31;5104074;28;20040;-79
2021/05/16 05:37:29;;;;;;;45.83;11.57;;;;;;;-142.75;68.69;76377.38;5108189;28;20076;-79
2021/05/16 05:39:54;;;;;;;52.45;12.23;;;;;;;-142.75;68.64;76365.56;5088996;28;20084;-78
2021/05/16 05:42:20;;;;;;;46.20;11.15;;;;;;;-142.75;68.27;76367.53;5099935;23;20053;-86
2021/05/16 05:44:46;;;;;;;51.25;10.85;;;;;;;-142.75;68.18;76361.63;5029656;28;20018;-83
2021/05/16 05:47:11;;;;;;;40.10;11.15;;;;;;;-142.75;67.94;76353.78;5057068;28;20064;-82
2021/05/16 05:49:38;;;;;;;47.97;10.25;;;;;;;-142.75;67.36;76347.84;5036644;28;20018;-81
2021/05/16 05:52:03;;;;;;;49.42;11.75;;;;;;;-142.75;67.53;76334.09;5025593;28;20401;-82
2021/05/16 05:54:29;;;;;;;50.65;12.35;;;;;;;-142.75;67.16;76328.19;5032084;28;20030;-83
2021/05/16 05:56:54;;;;;;;45.13;10.40;;;;;;;-142.75;66.95;76300.63;5026239;28;20112;-83
2021/05/16 05:59:20;;;;;;;42.13;10.43;;;;;;;-142.75;66.78;76282.91;5037925;28;20047;-82
2021/05/16 06:01:45;;;;;;;42.85;11.55;;;;;;;-142.75;66.51;76267.16;5031571;28;20020;-83
2021/05/16 06:04:10;;;;;;;41.35;9.82;;;;;;;-142.75;66.08;76263.22;5044471;28;20029;-82
2021/05/16 06:06:35;;;;;;;41.13;10.10;;;;;;;-142.75;65.64;76263.22;5043155;28;20105;-81
2021/05/16 06:09:01;;;;;;;43.17;10.45;;;;;;;-142.75;65.76;76275.03;5050384;28;20026;-80
2021/05/16 06:11:26;;;;;;;33.92;8.65;;;;;;;-142.75;64.74;76278.97;5037153;28;20049;-81
2021/05/16 06:13:52;;;;;;;39.28;9.85;;;;;;;-142.75;65.99;76282.91;5027231;28;20503;-84
2021/05/16 06:16:17;;;;;;;36.65;8.95;;;;;;;-142.75;65.74;76277.00;5025907;28;20027;-82
2021/05/16 06:18:42;;;;;;;44.40;10.73;;;;;;;-142.75;66.23;76273.06;5038647;28;20444;-83
2021/05/16 06:21:08;;;;;;;37.63;9.70;;;;;;;-142.75;66.05;76251.41;5041584;28;20032;-82
2021/05/16 06:23:43;;;;;;;37.47;8.65;;;;;;;-142.75;64.75;76255.34;5032516;28;20439;-84
2021/05/16 06:26:08;;;;;;;36.20;8.05;;;;;;;-142.75;64.15;76206.13;5054593;28;20028;-81
2021/05/16 06:28:33;;;;;;;35.28;8.80;;;;;;;-142.75;64.25;76225.81;5041633;28;20024;-83
2021/05/16 06:30:58;;;;;;;32.85;8.48;;;;;;;-142.75;64.47;76206.13;5053805;28;20033;-81
2021/05/16 06:33:24;;;;;;;36.60;8.20;;;;;;;-142.75;64.08;76204.16;5032390;28;20023;-82
2021/05/16 06:35:49;;;;;;;38.08;8.38;;;;;;;-142.75;64.75;76194.34;5054423;28;20110;-80
2021/05/16 06:38:15;;;;;;;34.28;7.82;;;;;;;-142.75;64.38;76217.94;5041341;28;20024;-81
2021/05/16 06:40:41;;;;;;;36.00;8.98;;;;;;;-142.75;64.49;76215.97;5046408;28;20100;-81
2021/05/16 06:43:06;;;;;;;40.80;8.80;;;;;;;-142.75;64.41;76239.59;5039733;28;20119;-81
2021/05/16 06:45:32;;;;;;;36.33;7.88;;;;;;;-142.75;64.13;76229.75;5045829;28;20016;-84
2021/05/16 06:47:57;;;;;;;32.05;7.68;;;;;;;-142.75;63.68;76229.75;5025578;28;20510;-83
2021/05/16 06:50:23;;;;;;;40.28;8.60;;;;;;;-142.75;63.78;76219.91;5036210;28;20008;-84
2021/05/16 06:52:48;;;;;;;35.10;7.82;;;;;;;-142.75;63.31;76227.78;5034927;28;20083;-83
2021/05/16 06:55:13;;;;;;;33.63;8.70;;;;;;;-142.75;63.61;76245.50;5044981;28;20032;-82
2021/05/16 06:57:41;;;;;;;29.05;8.23;;;;;;;-142.75;64.08;76239.59;5063140;28;20030;-81
2021/05/16 07:00:09;;;;;;;41.47;9.25;;;;;;;-142.75;63.66;76225.81;5050489;28;20058;-83
2021/05/16 07:02:34;;;;;;;41.38;9.85;;;;;;;-142.75;63.91;76198.28;5023496;28;20113;-81
2021/05/16 07:05:00;;;;;;;41.13;9.85;;;;;;;-142.75;62.96;76143.16;5038662;28;20072;-83
2021/05/16 07:07:25;;;;;;;38.92;9.80;;;;;;;-142.75;62.07;76125.44;5047211;28;20022;-84
2021/05/16 07:09:50;;;;;;;;;;;;;;;-142.75;61.34;76090.00;5038055;28;20032;-81
2021/05/16 07:12:15;;;;;;;37.95;8.23;;;;;;;-142.75;58.44;75987.66;5051840;28;19935;-81
2021/05/16 07:14:41;;;;;;;23.15;7.18;;;;;;;-142.75;57.06;75853.84;5043359;28;20027;-83
2021/05/16 07:17:06;;;;;;;;;;;;;;;-142.75;57.28;75845.97;5052791;28;20591;-83
2021/05/16 07:19:31;;;;;;;36.00;7.40;;;;;;;-142.75;56.96;75869.56;5022058;28;19924;-83
2021/05/16 07:21:57;;;;;;;32.92;7.78;;;;;;;-142.75;57.18;75869.56;5041687;28;20034;-80
2021/05/16 07:24:22;;;;;;;;;;;;;;;-142.75;56.74;75920.75;5060459;28;20020;-80
2021/05/16 07:26:48;;;;;;;26.45;6.55;;;;;;;-142.75;57.46;75954.22;5035472;28;20328;-78
2021/05/16 07:29:13;;;;;;;31.98;7.55;;;;;;;-142.75;58.73;76029.00;5017658;28;20033;-81
2021/05/16 07:31:38;;;;;;;38.58;8.73;;;;;;;-142.75;59.91;76076.22;5030408;28;20101;-83
2021/05/16 07:34:04;;;;;;;26.25;8.60;;;;;;;-142.75;59.66;76070.34;5047657;28;20029;-83
2021/05/16 07:36:29;;;;;;;;;;;;;;;-142.75;60.13;76038.84;5066363;28;20456;-82
2021/05/16 07:38:54;;;;;;;30.20;7.53;;;;;;;-142.75;59.06;75991.59;5060695;28;20373;-83
2021/05/16 07:41:19;;;;;;;;;;;;;;;-142.75;58.48;75991.59;5033616;28;20029;-79
2021/05/16 07:43:45;;;;;;;32.00;8.10;;;;;;;-142.75;56.93;75871.53;5030130;28;20293;-83
2021/05/16 07:46:10;;;;;;;;;;;;;;;-142.75;57.01;75794.78;5032251;28;20029;-81
2021/05/16 07:48:35;;;;;;;28.50;7.43;;;;;;;-142.75;54.70;75688.50;5040903;28;20000;-81
2021/05/16 07:51:02;;;;;;;19.52;6.47;;;;;;;-142.75;51.46;75546.81;5040344;28;20113;-84
2021/05/16 07:53:28;;;;;;;24.52;6.38;;;;;;;-142.75;51.19;75448.41;5036524;28;20050;-84
2021/05/16 07:55:55;;;;;;;27.30;6.47;;;;;;;-142.75;48.35;75426.78;5038953;28;20020;-82
2021/05/16 07:58:23;;;;;;;25.17;5.82;;;;;;;-142.75;50.01;75542.88;5032667;28;20038;-83
2021/05/16 08:00:48;;;;;;;25.77;6.53;;;;;;;-142.75;51.13;75633.41;5046017;28;20020;-82
2021/05/16 08:03:14;;;;;;;;;;;;;;;-142.75;52.45;75725.91;5038149;28;20501;-83
2021/05/16 08:05:39;;;;;;;29.13;6.18;;;;;;;-142.75;53.23;75731.81;5026675;28;20309;-82
2021/05/16 08:08:04;;;;;;;;;;;;;;;-142.75;53.30;75725.91;5055472;28;20024;-84
2021/05/16 08:10:30;;;;;;;26.08;6.00;;;;;;;-142.75;51.91;75546.81;5053534;28;19912;-82
2021/05/16 08:12:56;;;;;;;;;;;;;;;-142.75;50.36;75436.59;5054224;28;20028;-81
2021/05/16 08:15:24;;;;;;;22.38;5.72;;;;;;;-142.75;47.24;75314.59;5066115;28;19916;-85
2021/05/16 08:17:49;;;;;;;21.65;5.18;;;;;;;-142.75;46.54;75373.63;5054115;28;20439;-82
2021/05/16 08:20:15;;;;;;;22.98;4.57;;;;;;;-142.75;48.75;75458.25;5053215;28;20026;-83
2021/05/16 08:22:40;;;;;;;22.33;5.28;;;;;;;-142.75;51.49;75605.84;5044112;28;20032;-84
2021/05/16 08:25:07;;;;;;;;;;;;;;;-142.75;52.85;75800.69;5021902;28;20024;-81
2021/05/16 08:27:32;;;;;;;10.85;3.00;;;;;;;-142.75;54.60;75897.13;5041284;28;19912;-82
2021/05/16 08:29:57;;;;;;;;;;;;;;;-142.75;56.01;75952.25;5053440;28;20026;-79
2021/05/16 08:32:23;;;;;;;19.08;4.80;;;;;;;-142.75;57.36;75973.88;5055008;28;20386;-83
2021/05/16 08:34:48;;;;;;;20.70;5.07;;;;;;;-142.75;58.14;75993.56;5035398;28;20491;-84
2021/05/16 08:37:14;;;;;;;;;;;;;;;-142.75;59.47;75999.47;5043834;28;20027;-84
2021/05/16 08:39:39;;;;;;;27.45;6.65;;;;;;;-142.75;60.25;76021.13;5020787;28;19957;-86
2021/05/16 08:42:05;;;;;;;;;;;;;;;-142.75;59.66;76034.91;5045016;28;20044;-82
2021/05/16 08:44:32;;;;;;;21.75;6.18;;;;;;;-142.75;60.10;76029.00;5021148;28;20467;-80
2021/05/16 08:46:59;;;;;;;31.23;7.30;;;;;;;-142.75;61.61;75895.16;5019154;28;20031;-82
2021/05/16 08:49:25;;;;;;;26.80;6.85;;;;;;;-142.75;56.85;75706.22;5045511;28;20513;-81
2021/05/16 08:51:50;;;;;;;30.08;6.95;;;;;;;-142.75;56.67;75582.25;5063127;28;20116;-81
2021/05/16 08:54:16;;;;;;;;;;;;;;;-142.75;53.64;75430.72;5037168;28;20047;-82
2021/05/16 08:56:42;;;;;;;27.50;5.70;;;;;;;-142.75;51.11;75517.28;5007265;28;19914;-80
2021/05/16 08:59:07;;;;;;;;;;;;;;;-142.75;52.52;75584.22;5080518;28;20815;-82
2021/05/16 09:01:40;;;;;;;25.85;5.35;;;;;;;-142.75;53.94;75660.97;5030826;28;19913;-82
2021/05/16 09:04:44;;;;;;;28.45;5.45;;;;;;;-142.75;55.62;75586.19;5022440;28;20024;-82
2021/05/16 09:07:10;;;;;;;20.45;4.65;;;;;;;-142.75;52.80;75450.38;5001779;28;20445;-84
2021/05/16 09:09:42;;;;;;;;;;;;;;;-142.75;50.00;75342.16;5004230;28;20118;-83
2021/05/16 09:12:08;;;;;;;22.85;4.75;;;;;;;-142.75;47.84;75298.84;5014518;28;19936;-82
2021/05/16 09:14:54;;;;;;;26.00;5.30;;;;;;;-142.75;48.07;75324.44;5044290;28;20036;-82
2021/05/16 09:17:30;;;;;;;21.48;4.40;;;;;;;-142.75;46.59;75281.16;5036727;28;20033;-82
2021/05/16 09:20:04;;;;;;;16.38;4.55;;;;;;;-142.75;46.12;75269.34;5033986;28;20148;-82
2021/05/16 09:22:34;;;;;;;18.38;4.47;;;;;;;-142.75;47.47;75184.72;5014298;28;20393;-81
2021/05/16 09:25:14;;;;;;;16.70;4.03;;;;;;;-142.75;42.56;75117.81;5024685;28;20090;-83
2021/05/16 09:27:42;;;;;;;21.15;4.80;;;;;;;-142.75;45.88;75192.59;5034750;28;20038;-79
2021/05/16 09:30:19;;;;;;;20.20;4.32;;;;;;;-142.75;46.57;75231.94;5058180;28;20027;-81
2021/05/16 09:32:48;;;;;;;17.70;4.25;;;;;;;-142.75;45.48;75231.94;5039298;28;20028;-81
2021/05/16 09:35:14;;;;;;;18.58;4.65;;;;;;;-142.75;45.18;75277.22;5028020;28;20030;-82
2021/05/16 09:38:19;;;;;;;22.95;5.28;;;;;;;-142.75;45.90;75291.00;5045742;28;20027;-82
2021/05/16 09:40:56;;;;;;;18.15;3.63;;;;;;;-142.75;45.16;75239.81;4982145;28;20531;-80
2021/05/16 09:43:22;;;;;;;15.10;3.03;;;;;;;-142.75;45.30;75292.97;4981434;28;20044;-83
2021/05/16 09:45:57;;;;;;;13.13;1.95;;;;;;;-142.75;44.03;75216.22;5004978;28;20032;-81
2021/05/16 09:48:33;;;;;;;10.18;2.47;;;;;;;-142.75;42.12;75141.44;5039962;28;20025;-82
2021/05/16 09:51:04;;;;;;;16.25;3.28;;;;;;;-142.75;43.97;75111.91;5040027;28;20115;-80
2021/05/16 09:53:30;;;;;;;14.75;3.17;;;;;;;-142.75;43.02;75043.03;5016637;28;20040;-81
2021/05/16 09:56:26;;;;;;;15.70;3.50;;;;;;;-142.75;41.81;75031.25;5018314;28;20021;-80
2021/05/16 09:58:55;;;;;;;17.57;4.20;;;;;;;-142.75;42.84;75275.25;5037984;28;20101;-78
2021/05/16 10:01:22;;;;;;;19.38;4.78;;;;;;;-142.75;44.89;75129.63;5004966;28;20121;-79
2021/05/16 10:03:49;;;;;;;18.30;3.88;;;;;;;-142.75;43.27;75043.03;5009252;28;20079;-82
2021/05/16 10:06:14;;;;;;;17.52;4.40;;;;;;;-142.75;43.91;75090.28;5039946;28;20095;-79
2021/05/16 10:08:42;;;;;;;18.08;4.50;;;;;;;-142.75;44.99;75216.22;5006256;28;20113;-79
2021/05/16 10:11:07;;;;;;;19.70;4.72;;;;;;;-142.75;45.88;75320.50;5005831;28;20040;-81
2021/05/16 10:13:36;;;;;;;17.05;4.72;;;;;;;-142.75;48.00;75367.72;5041472;28;20022;-81
2021/05/16 10:16:02;;;;;;;19.58;4.88;;;;;;;-142.75;45.79;75456.28;5041219;28;20397;-82
2021/05/16 10:18:30;;;;;;;20.23;5.05;;;;;;;-142.75;47.56;75515.31;5036528;28;20031;-80
2021/05/16 10:20:55;;;;;;;20.02;4.88;;;;;;;-142.75;48.03;75582.25;5034314;28;20022;-81
2021/05/16 10:23:31;;;;;;;;;;;;;;;-142.75;49.36;75601.91;5034871;28;20030;-81
2021/05/16 10:26:14;;;;;;;16.65;4.63;;;;;;;-142.75;50.36;75623.56;5043547;28;20006;-80
2021/05/16 10:28:56;;;;;;;23.42;5.03;;;;;;;-142.75;48.66;75668.84;5051202;28;20498;-81
2021/05/16 10:31:42;;;;;;;18.23;5.45;;;;;;;-142.75;50.15;75684.56;5027957;28;20030;-80
2021/05/16 10:34:26;;;;;;;18.38;4.95;;;;;;;-142.75;48.67;75678.66;5006273;28;20035;-81
2021/05/16 10:37:00;;;;;;;22.70;5.93;;;;;;;-142.75;48.53;75558.63;5033336;28;20045;-82
2021/05/16 10:39:43;;;;;;;16.45;5.20;;;;;;;-142.75;47.08;75338.22;5009546;28;20460;-81
2021/05/16 10:42:23;;;;;;;17.23;4.28;;;;;;;-142.75;44.47;75316.56;5060458;28;20444;-82
2021/05/16 10:45:07;;;;;;;23.05;5.03;;;;;;;-142.75;43.75;75255.56;5014932;28;20029;-82
2021/05/16 10:47:42;;;;;;;17.27;3.88;;;;;;;-142.75;44.52;75239.81;5062884;28;20024;-80
2021/05/16 10:50:08;;;;;;;22.80;4.57;;;;;;;-142.75;44.20;75277.22;5028329;28;20016;-79
2021/05/16 10:52:34;;;;;;;16.30;3.95;;;;;;;-142.75;45.02;75294.94;5039914;28;20053;-82
2021/05/16 10:54:59;;;;;;;14.52;3.63;;;;;;;-142.75;46.00;75231.94;5044396;28;20554;-83
2021/05/16 10:57:34;;;;;;;;;;;;;;;-142.75;44.49;75131.59;5036358;28;20025;-84
2021/05/16 11:00:20;;;;;;;16.27;3.38;;;;;;;-142.75;42.48;75212.28;5013102;28;19916;-84
2021/05/16 11:02:58;;;;;;;15.43;3.35;;;;;;;-142.75;43.56;75291.00;5037601;28;20026;-84
2021/05/16 11:05:49;;;;;;;14.23;3.33;;;;;;;-142.75;44.71;75405.13;4991474;28;20042;-82
2021/05/16 11:08:20;;;;;;;16.27;2.97;;;;;;;-142.75;46.83;75458.25;5028705;28;20433;-83
2021/05/16 11:10:47;;;;;;;15.07;4.03;;;;;;;-142.75;46.96;75495.66;5039541;28;20027;-82
2021/05/16 11:13:17;;;;;;;16.98;3.58;;;;;;;-142.75;46.89;75521.22;5019844;28;20024;-83
2021/05/16 11:15:51;;;;;;;17.52;3.08;;;;;;;-142.75;46.25;75511.41;5010868;28;20022;-82